sensor_id;sensor_type;location;lat;lon;timestamp;pressure;altitude;pressure_sealevel;temperature;humidity
74680;BME280;63211;48.548;2.704;2023-04-30T00:00:00;101262.06;;;18.68;57.24
74680;BME280;63211;48.548;2.704;2023-04-30T00:02:26;101252.84;;;18.69;57.44
74680;BME280;63211;48.548;2.704;2023-04-30T00:04:53;101253.91;;;18.68;57.20
74680;BME280;63211;48.548;2.704;2023-04-30T00:07:21;101254.72;;;18.68;57.12
74680;BME280;63211;48.548;2.704;2023-04-30T00:09:47;101263.13;;;18.67;57.11
74680;BME280;63211;48.548;2.704;2023-04-30T00:12:15;101254.09;;;18.66;57.35
74680;BME280;63211;48.548;2.704;2023-04-30T00:14:42;101249.50;;;18.67;57.31
74680;BME280;63211;48.548;2.704;2023-04-30T00:17:09;101248.25;;;18.63;57.37
74680;BME280;63211;48.548;2.704;2023-04-30T00:19:35;101239.84;;;18.64;57.17
74680;BME280;63211;48.548;2.704;2023-04-30T00:22:02;101240.91;;;18.63;57.10
74680;BME280;63211;48.548;2.704;2023-04-30T00:24:31;101232.91;;;18.62;57.13
74680;BME280;63211;48.548;2.704;2023-04-30T00:26:58;101231.03;;;18.62;57.21
74680;BME280;63211;48.548;2.704;2023-04-30T00:29:24;101228.53;;;18.61;57.32
74680;BME280;63211;48.548;2.704;2023-04-30T00:31:51;101230.19;;;18.62;57.43
74680;BME280;63211;48.548;2.704;2023-04-30T00:34:17;101227.47;;;18.62;57.10
74680;BME280;63211;48.548;2.704;2023-04-30T00:36:44;101227.47;;;18.62;57.30
74680;BME280;63211;48.548;2.704;2023-04-30T00:39:11;101227.47;;;18.62;57.22
74680;BME280;63211;48.548;2.704;2023-04-30T00:41:39;101216.78;;;18.60;57.18
74680;BME280;63211;48.548;2.704;2023-04-30T00:44:06;101218.44;;;18.61;56.88
74680;BME280;63211;48.548;2.704;2023-04-30T00:46:33;101216.56;;;18.62;57.14
74680;BME280;63211;48.548;2.704;2023-04-30T00:48:59;101217.63;;;18.61;57.10
74680;BME280;63211;48.548;2.704;2023-04-30T00:51:30;101212.75;;;18.56;57.10
74680;BME280;63211;48.548;2.704;2023-04-30T00:53:59;101223.66;;;18.56;56.88
74680;BME280;63211;48.548;2.704;2023-04-30T00:56:27;101221.38;;;18.60;57.09
74680;BME280;63211;48.548;2.704;2023-04-30T00:58:56;101220.34;;;18.61;57.03
74680;BME280;63211;48.548;2.704;2023-04-30T01:01:23;101218.44;;;18.61;57.01
74680;BME280;63211;48.548;2.704;2023-04-30T01:03:50;101211.09;;;18.62;56.93
74680;BME280;63211;48.548;2.704;2023-04-30T01:06:17;101210.66;;;18.58;56.91
74680;BME280;63211;48.548;2.704;2023-04-30T01:08:44;101186.81;;;18.40;57.05
74680;BME280;63211;48.548;2.704;2023-04-30T01:11:17;101208.78;;;18.59;56.83
74680;BME280;63211;48.548;2.704;2023-04-30T01:13:52;101207.94;;;18.58;57.00
74680;BME280;63211;48.548;2.704;2023-04-30T01:16:26;101203.53;;;18.57;56.91
74680;BME280;63211;48.548;2.704;2023-04-30T01:18:56;101204.78;;;18.54;57.10
74680;BME280;63211;48.548;2.704;2023-04-30T01:21:25;101203.94;;;18.54;57.05
74680;BME280;63211;48.548;2.704;2023-04-30T01:26:58;101193.66;;;18.56;56.91
74680;BME280;63211;48.548;2.704;2023-04-30T01:29:33;101188.66;;;18.53;56.89
74680;BME280;63211;48.548;2.704;2023-04-30T01:32:01;101204.59;;;18.56;57.01
74680;BME280;63211;48.548;2.704;2023-04-30T01:34:28;101199.97;;;18.57;56.63
74680;BME280;63211;48.548;2.704;2023-04-30T01:37:04;101206.25;;;18.57;57.03
74680;BME280;63211;48.548;2.704;2023-04-30T01:39:44;101203.94;;;18.54;56.87
74680;BME280;63211;48.548;2.704;2023-04-30T01:42:20;101168.16;;;18.31;57.11
74680;BME280;63211;48.548;2.704;2023-04-30T01:44:55;101190.56;;;18.46;57.11
74680;BME280;63211;48.548;2.704;2023-04-30T01:47:31;101202.06;;;18.54;56.92
74680;BME280;63211;48.548;2.704;2023-04-30T01:50:08;101201.66;;;18.51;56.69
74680;BME280;63211;48.548;2.704;2023-04-30T01:52:39;101197.88;;;18.52;56.96
74680;BME280;63211;48.548;2.704;2023-04-30T01:55:08;101194.94;;;18.53;56.66
74680;BME280;63211;48.548;2.704;2023-04-30T01:57:39;101201.22;;;18.54;56.83
74680;BME280;63211;48.548;2.704;2023-04-30T02:00:09;101202.91;;;18.55;56.94
74680;BME280;63211;48.548;2.704;2023-04-30T02:02:36;101200.19;;;18.55;56.91
74680;BME280;63211;48.548;2.704;2023-04-30T02:05:03;101202.28;;;18.53;56.78
74680;BME280;63211;48.548;2.704;2023-04-30T02:07:37;101202.69;;;18.50;57.16
74680;BME280;63211;48.548;2.704;2023-04-30T02:10:05;101202.94;;;18.48;56.99
74680;BME280;63211;48.548;2.704;2023-04-30T02:12:32;101201.28;;;18.47;57.09
74680;BME280;63211;48.548;2.704;2023-04-30T02:14:59;101204.84;;;18.48;57.03
74680;BME280;63211;48.548;2.704;2023-04-30T02:17:27;101199.97;;;18.50;56.54
74680;BME280;63211;48.548;2.704;2023-04-30T02:19:54;101199.34;;;18.54;56.24
74680;BME280;63211;48.548;2.704;2023-04-30T02:22:20;101190.94;;;18.56;56.03
74680;BME280;63211;48.548;2.704;2023-04-30T02:24:47;101199.16;;;18.63;55.90
74680;BME280;63211;48.548;2.704;2023-04-30T02:27:14;101200.19;;;18.68;55.73
74680;BME280;63211;48.548;2.704;2023-04-30T02:29:41;101195.78;;;18.67;55.52
74680;BME280;63211;48.548;2.704;2023-04-30T02:32:07;101201.03;;;18.69;55.69
74680;BME280;63211;48.548;2.704;2023-04-30T02:34:35;101199.34;;;18.68;55.42
74680;BME280;63211;48.548;2.704;2023-04-30T02:37:02;101198.72;;;18.66;55.86
74680;BME280;63211;48.548;2.704;2023-04-30T02:39:29;101198.09;;;18.64;55.98
74680;BME280;63211;48.548;2.704;2023-04-30T02:41:55;101201.88;;;18.63;55.84
74680;BME280;63211;48.548;2.704;2023-04-30T02:44:22;101207.53;;;18.61;55.88
74680;BME280;63211;48.548;2.704;2023-04-30T02:46:49;101199.56;;;18.60;56.16
74680;BME280;63211;48.548;2.704;2023-04-30T02:49:16;101199.75;;;18.58;56.01
74680;BME280;63211;48.548;2.704;2023-04-30T02:51:44;101207.53;;;18.61;56.06
74680;BME280;63211;48.548;2.704;2023-04-30T02:54:10;101204.81;;;18.61;55.92
74680;BME280;63211;48.548;2.704;2023-04-30T02:56:37;101210.28;;;18.61;55.93
74680;BME280;63211;48.548;2.704;2023-04-30T02:59:04;101207.53;;;18.61;56.29
74680;BME280;63211;48.548;2.704;2023-04-30T03:01:30;101208.78;;;18.59;56.22
74680;BME280;63211;48.548;2.704;2023-04-30T03:03:57;101204.38;;;18.58;56.64
74680;BME280;63211;48.548;2.704;2023-04-30T03:06:23;101207.94;;;18.58;56.66
74680;BME280;63211;48.548;2.704;2023-04-30T03:08:51;101198.91;;;18.58;56.55
74680;BME280;63211;48.548;2.704;2023-04-30T03:11:18;101211.72;;;18.57;56.47
74680;BME280;63211;48.548;2.704;2023-04-30T03:13:46;101198.28;;;18.55;56.29
74680;BME280;63211;48.548;2.704;2023-04-30T03:16:16;101205.41;;;18.57;56.43
74680;BME280;63211;48.548;2.704;2023-04-30T03:18:42;101202.69;;;18.57;56.69
74680;BME280;63211;48.548;2.704;2023-04-30T03:21:09;101192.41;;;18.52;56.77
74680;BME280;63211;48.548;2.704;2023-04-30T03:23:36;101196.81;;;18.53;56.56
74680;BME280;63211;48.548;2.704;2023-04-30T03:26:04;101200.38;;;18.53;56.72
74680;BME280;63211;48.548;2.704;2023-04-30T03:28:30;101202.50;;;18.51;56.79
74680;BME280;63211;48.548;2.704;2023-04-30T03:30:57;101193.47;;;18.51;56.84
74680;BME280;63211;48.548;2.704;2023-04-30T03:33:25;101192.03;;;18.48;56.59
74680;BME280;63211;48.548;2.704;2023-04-30T03:35:51;101198.34;;;18.49;56.57
74680;BME280;63211;48.548;2.704;2023-04-30T03:38:18;101197.50;;;18.48;56.33
74680;BME280;63211;48.548;2.704;2023-04-30T03:40:44;101194.75;;;18.48;56.84
74680;BME280;63211;48.548;2.704;2023-04-30T03:43:12;101186.16;;;18.45;56.45
74680;BME280;63211;48.548;2.704;2023-04-30T03:45:39;101193.72;;;18.49;56.48
74680;BME280;63211;48.548;2.704;2023-04-30T03:48:05;101192.03;;;18.48;56.46
74680;BME280;63211;48.548;2.704;2023-04-30T03:50:32;101197.03;;;18.51;56.53
74680;BME280;63211;48.548;2.704;2023-04-30T03:52:59;101187.81;;;18.52;56.26
74680;BME280;63211;48.548;2.704;2023-04-30T03:55:25;101192.63;;;18.50;56.39
74680;BME280;63211;48.548;2.704;2023-04-30T03:57:52;101198.34;;;18.49;56.29
74680;BME280;63211;48.548;2.704;2023-04-30T04:00:20;101193.72;;;18.49;56.23
74680;BME280;63211;48.548;2.704;2023-04-30T04:02:47;101198.53;;;18.47;56.62
74680;BME280;63211;48.548;2.704;2023-04-30T04:05:13;101189.75;;;18.45;56.41
74680;BME280;63211;48.548;2.704;2023-04-30T04:07:40;101194.34;;;18.45;56.27
74680;BME280;63211;48.548;2.704;2023-04-30T04:10:07;101193.50;;;18.44;56.45
74680;BME280;63211;48.548;2.704;2023-04-30T04:12:34;101196.66;;;18.48;56.31
74680;BME280;63211;48.548;2.704;2023-04-30T04:15:00;101195.41;;;18.44;56.23
74680;BME280;63211;48.548;2.704;2023-04-30T04:17:28;101193.31;;;18.46;56.40
74680;BME280;63211;48.548;2.704;2023-04-30T04:19:55;101193.72;;;18.49;56.25
74680;BME280;63211;48.548;2.704;2023-04-30T04:22:22;101192.47;;;18.45;56.19
74680;BME280;63211;48.548;2.704;2023-04-30T04:24:48;101186.16;;;18.45;56.58
74680;BME280;63211;48.548;2.704;2023-04-30T04:27:15;101183.44;;;18.45;56.07
74680;BME280;63211;48.548;2.704;2023-04-30T04:29:42;101184.72;;;18.42;56.16
74680;BME280;63211;48.548;2.704;2023-04-30T04:32:09;101194.34;;;18.38;56.30
74680;BME280;63211;48.548;2.704;2023-04-30T04:34:37;101188.69;;;18.40;56.19
74680;BME280;63211;48.548;2.704;2023-04-30T04:37:04;101202.31;;;18.40;55.88
74680;BME280;63211;48.548;2.704;2023-04-30T04:39:30;101201.50;;;18.39;55.85
74680;BME280;63211;48.548;2.704;2023-04-30T04:41:57;101189.53;;;18.40;55.49
74680;BME280;63211;48.548;2.704;2023-04-30T04:44:23;101190.56;;;18.46;55.52
74680;BME280;63211;48.548;2.704;2023-04-30T04:46:51;101201.22;;;18.54;55.28
74680;BME280;63211;48.548;2.704;2023-04-30T04:49:18;101198.91;;;18.58;55.16
74680;BME280;63211;48.548;2.704;2023-04-30T04:51:46;101195.13;;;18.59;54.90
74680;BME280;63211;48.548;2.704;2023-04-30T04:54:13;101204.19;;;18.59;54.88
74680;BME280;63211;48.548;2.704;2023-04-30T04:56:39;101198.06;;;18.57;55.11
74680;BME280;63211;48.548;2.704;2023-04-30T04:59:06;101191.78;;;18.57;55.08
74680;BME280;63211;48.548;2.704;2023-04-30T05:01:32;101191.16;;;18.54;55.35
74680;BME280;63211;48.548;2.704;2023-04-30T05:03:59;101194.09;;;18.53;55.30
74680;BME280;63211;48.548;2.704;2023-04-30T05:06:26;101203.31;;;18.52;55.24
74680;BME280;63211;48.548;2.704;2023-04-30T05:08:54;101197.03;;;18.51;55.16
74680;BME280;63211;48.548;2.704;2023-04-30T05:11:20;101201.66;;;18.51;55.23
74680;BME280;63211;48.548;2.704;2023-04-30T05:13:47;101204.16;;;18.52;55.49
74680;BME280;63211;48.548;2.704;2023-04-30T05:16:14;101202.50;;;18.51;55.23
74680;BME280;63211;48.548;2.704;2023-04-30T05:18:40;101210.47;;;18.53;55.41
74680;BME280;63211;48.548;2.704;2023-04-30T05:21:07;101206.06;;;18.52;55.64
74680;BME280;63211;48.548;2.704;2023-04-30T05:23:33;101201.44;;;18.52;55.75
74680;BME280;63211;48.548;2.704;2023-04-30T05:26:01;101209.00;;;18.50;55.76
74680;BME280;63211;48.548;2.704;2023-04-30T05:28:28;101208.16;;;18.50;55.93
74680;BME280;63211;48.548;2.704;2023-04-30T05:30:54;101217.41;;;18.49;56.06
74680;BME280;63211;48.548;2.704;2023-04-30T05:33:21;101215.06;;;18.52;56.07
74680;BME280;63211;48.548;2.704;2023-04-30T05:35:47;101211.97;;;18.49;56.04
74680;BME280;63211;48.548;2.704;2023-04-30T05:38:14;101191.84;;;18.30;55.79
74680;BME280;63211;48.548;2.704;2023-04-30T05:40:41;101226.66;;;18.48;55.83
74680;BME280;63211;48.548;2.704;2023-04-30T05:43:09;101223.28;;;18.46;55.96
74680;BME280;63211;48.548;2.704;2023-04-30T05:45:35;101226.84;;;18.46;55.86
74680;BME280;63211;48.548;2.704;2023-04-30T05:48:02;101228.53;;;18.47;55.76
74680;BME280;63211;48.548;2.704;2023-04-30T05:50:29;101223.28;;;18.46;55.87
74680;BME280;63211;48.548;2.704;2023-04-30T05:52:56;101224.34;;;18.45;56.18
74680;BME280;63211;48.548;2.704;2023-04-30T05:55:22;101232.09;;;18.41;55.94
74680;BME280;63211;48.548;2.704;2023-04-30T05:57:49;101232.53;;;18.38;55.88
74680;BME280;63211;48.548;2.704;2023-04-30T06:00:17;101234.41;;;18.38;56.29
74680;BME280;63211;48.548;2.704;2023-04-30T06:02:43;101222.88;;;18.36;56.10
74680;BME280;63211;48.548;2.704;2023-04-30T06:05:10;101226.66;;;18.35;56.17
74680;BME280;63211;48.548;2.704;2023-04-30T06:07:36;101230.22;;;18.42;55.68
74680;BME280;63211;48.548;2.704;2023-04-30T06:10:04;101194.41;;;18.25;55.80
74680;BME280;63211;48.548;2.704;2023-04-30T06:12:31;101222.03;;;18.42;55.82
74680;BME280;63211;48.548;2.704;2023-04-30T06:14:57;101223.72;;;18.43;55.76
74680;BME280;63211;48.548;2.704;2023-04-30T06:17:25;101228.13;;;18.44;55.72
74680;BME280;63211;48.548;2.704;2023-04-30T06:19:52;101220.34;;;18.41;55.68
74680;BME280;63211;48.548;2.704;2023-04-30T06:22:19;101230.63;;;18.39;55.55
74680;BME280;63211;48.548;2.704;2023-04-30T06:24:45;101233.16;;;18.40;55.76
74680;BME280;63211;48.548;2.704;2023-04-30T06:27:12;101224.75;;;18.42;55.65
74680;BME280;63211;48.548;2.704;2023-04-30T06:29:38;101226.88;;;18.40;55.77
74680;BME280;63211;48.548;2.704;2023-04-30T06:32:05;101228.13;;;18.37;55.60
74680;BME280;63211;48.548;2.704;2023-04-30T06:34:34;101229.78;;;18.38;55.81
74680;BME280;63211;48.548;2.704;2023-04-30T06:37:01;101236.09;;;18.39;55.52
74680;BME280;63211;48.548;2.704;2023-04-30T06:39:27;101231.69;;;18.38;55.62
74680;BME280;63211;48.548;2.704;2023-04-30T06:41:54;101230.84;;;18.37;55.47
74680;BME280;63211;48.548;2.704;2023-04-30T06:44:21;101240.06;;;18.36;54.87
74680;BME280;63211;48.548;2.704;2023-04-30T06:46:47;101237.97;;;18.38;54.84
74680;BME280;63211;48.548;2.704;2023-04-30T06:49:14;101231.06;;;18.42;54.64
74680;BME280;63211;48.548;2.704;2023-04-30T06:51:42;101234.41;;;18.44;54.78
74680;BME280;63211;48.548;2.704;2023-04-30T06:54:09;101237.09;;;18.51;54.47
74680;BME280;63211;48.548;2.704;2023-04-30T06:56:35;101236.03;;;18.59;54.61
74680;BME280;63211;48.548;2.704;2023-04-30T06:59:02;101238.38;;;18.62;54.51
74680;BME280;63211;48.548;2.704;2023-04-30T07:01:29;101226.63;;;18.61;54.29
74680;BME280;63211;48.548;2.704;2023-04-30T07:03:55;101232.09;;;18.61;54.40
74680;BME280;63211;48.548;2.704;2023-04-30T07:06:22;101199.59;;;18.40;54.16
74680;BME280;63211;48.548;2.704;2023-04-30T07:08:50;101233.97;;;18.61;54.20
74680;BME280;63211;48.548;2.704;2023-04-30T07:11:16;101246.78;;;18.60;54.30
74680;BME280;63211;48.548;2.704;2023-04-30T07:13:43;101238.78;;;18.59;54.45
74680;BME280;63211;48.548;2.704;2023-04-30T07:16:10;101237.94;;;18.58;54.41
74680;BME280;63211;48.548;2.704;2023-04-30T07:18:37;101237.94;;;18.58;54.31
74680;BME280;63211;48.548;2.704;2023-04-30T07:21:05;101237.09;;;18.58;54.39
74680;BME280;63211;48.548;2.704;2023-04-30T07:23:32;101240.66;;;18.58;54.41
74680;BME280;63211;48.548;2.704;2023-04-30T07:26:00;101238.16;;;18.57;54.51
74680;BME280;63211;48.548;2.704;2023-04-30T07:28:27;101241.50;;;18.59;54.33
74680;BME280;63211;48.548;2.704;2023-04-30T07:30:53;101237.31;;;18.56;54.25
74680;BME280;63211;48.548;2.704;2023-04-30T07:33:20;101240.66;;;18.58;54.29
74680;BME280;63211;48.548;2.704;2023-04-30T07:35:47;101231.00;;;18.55;54.25
74680;BME280;63211;48.548;2.704;2023-04-30T07:38:13;101245.09;;;18.59;54.49
74680;BME280;63211;48.548;2.704;2023-04-30T07:40:41;101236.91;;;18.59;54.34
74680;BME280;63211;48.548;2.704;2023-04-30T07:43:09;101241.50;;;18.59;54.26
74680;BME280;63211;48.548;2.704;2023-04-30T07:45:36;101232.47;;;18.58;54.32
74680;BME280;63211;48.548;2.704;2023-04-30T07:48:03;101236.03;;;18.59;54.33
74680;BME280;63211;48.548;2.704;2023-04-30T07:50:30;101215.75;;;18.48;54.22
74680;BME280;63211;48.548;2.704;2023-04-30T07:52:58;101226.00;;;18.59;54.40
74680;BME280;63211;48.548;2.704;2023-04-30T07:55:25;101236.03;;;18.59;54.36
74680;BME280;63211;48.548;2.704;2023-04-30T07:57:51;101234.19;;;18.59;54.42
74680;BME280;63211;48.548;2.704;2023-04-30T08:00:19;101237.53;;;18.61;54.43
74680;BME280;63211;48.548;2.704;2023-04-30T08:02:46;101228.53;;;18.61;54.44
74680;BME280;63211;48.548;2.704;2023-04-30T08:05:13;101233.13;;;18.60;54.46
74680;BME280;63211;48.548;2.704;2023-04-30T08:07:40;101243.84;;;18.62;54.66
74680;BME280;63211;48.548;2.704;2023-04-30T08:10:09;101237.53;;;18.61;54.51
74680;BME280;63211;48.548;2.704;2023-04-30T08:12:36;101229.34;;;18.61;54.45
74680;BME280;63211;48.548;2.704;2023-04-30T08:15:04;101236.03;;;18.59;54.23
74680;BME280;63211;48.548;2.704;2023-04-30T08:17:33;101149.75;;;18.13;54.55
74680;BME280;63211;48.548;2.704;2023-04-30T08:20:00;101227.69;;;18.60;54.36
74680;BME280;63211;48.548;2.704;2023-04-30T08:22:26;101239.22;;;18.62;54.22
74680;BME280;63211;48.548;2.704;2023-04-30T08:24:53;101228.53;;;18.61;54.56
74680;BME280;63211;48.548;2.704;2023-04-30T08:27:20;101231.03;;;18.62;54.45
74680;BME280;63211;48.548;2.704;2023-04-30T08:29:46;101235.44;;;18.63;54.25
74680;BME280;63211;48.548;2.704;2023-04-30T08:32:13;101244.47;;;18.64;54.35
74680;BME280;63211;48.548;2.704;2023-04-30T08:34:41;101234.38;;;18.64;54.33
74680;BME280;63211;48.548;2.704;2023-04-30T08:37:08;101228.31;;;18.62;54.39
74680;BME280;63211;48.548;2.704;2023-04-30T08:39:34;101235.22;;;18.65;54.28
74680;BME280;63211;48.548;2.704;2023-04-30T08:42:02;101235.22;;;18.65;54.23
74680;BME280;63211;48.548;2.704;2023-04-30T08:44:32;101231.44;;;18.66;54.24
74680;BME280;63211;48.548;2.704;2023-04-30T08:47:00;101231.44;;;18.66;54.40
74680;BME280;63211;48.548;2.704;2023-04-30T08:49:28;101226.00;;;18.66;54.37
74680;BME280;63211;48.548;2.704;2023-04-30T08:51:58;101207.53;;;18.54;54.29
74680;BME280;63211;48.548;2.704;2023-04-30T08:54:27;101226.84;;;18.66;54.54
74680;BME280;63211;48.548;2.704;2023-04-30T08:56:55;101223.88;;;18.68;54.29
74680;BME280;63211;48.548;2.704;2023-04-30T08:59:22;101229.97;;;18.70;54.36
74680;BME280;63211;48.548;2.704;2023-04-30T09:01:48;101228.31;;;18.69;54.17
74680;BME280;63211;48.548;2.704;2023-04-30T09:04:15;101227.25;;;18.70;54.43
74680;BME280;63211;48.548;2.704;2023-04-30T09:06:42;101219.06;;;18.70;54.43
74680;BME280;63211;48.548;2.704;2023-04-30T09:09:11;101228.88;;;18.71;54.69
74680;BME280;63211;48.548;2.704;2023-04-30T09:11:38;101227.84;;;18.72;54.57
74680;BME280;63211;48.548;2.704;2023-04-30T09:14:04;101222.38;;;18.72;54.58
74680;BME280;63211;48.548;2.704;2023-04-30T09:16:44;101222.38;;;18.72;54.69
74680;BME280;63211;48.548;2.704;2023-04-30T09:19:22;101223.22;;;18.72;54.49
74680;BME280;63211;48.548;2.704;2023-04-30T09:21:49;101220.50;;;18.72;54.44
74680;BME280;63211;48.548;2.704;2023-04-30T09:24:17;101213.19;;;18.66;54.62
74680;BME280;63211;48.548;2.704;2023-04-30T09:26:45;101188.44;;;18.54;54.61
74680;BME280;63211;48.548;2.704;2023-04-30T09:29:12;101222.78;;;18.75;54.66
74680;BME280;63211;48.548;2.704;2023-04-30T09:31:42;101215.03;;;18.72;54.82
74680;BME280;63211;48.548;2.704;2023-04-30T09:34:09;101219.03;;;18.76;54.53
74680;BME280;63211;48.548;2.704;2023-04-30T09:36:35;101220.69;;;18.77;54.84
74680;BME280;63211;48.548;2.704;2023-04-30T09:39:06;101218.81;;;18.78;54.77
74680;BME280;63211;48.548;2.704;2023-04-30T09:41:37;101214.63;;;18.75;54.72
74680;BME280;63211;48.548;2.704;2023-04-30T09:44:04;101210.84;;;18.76;54.81
74680;BME280;63211;48.548;2.704;2023-04-30T09:46:32;101214.19;;;18.78;54.94
74680;BME280;63211;48.548;2.704;2023-04-30T09:48:59;101209.78;;;18.77;54.78
74680;BME280;63211;48.548;2.704;2023-04-30T09:51:26;101216.69;;;18.80;54.79
74680;BME280;63211;48.548;2.704;2023-04-30T09:53:54;101211.25;;;18.80;54.74
74680;BME280;63211;48.548;2.704;2023-04-30T09:56:21;101199.50;;;18.79;54.92
74680;BME280;63211;48.548;2.704;2023-04-30T09:58:51;101190.91;;;18.76;54.87
74680;BME280;63211;48.548;2.704;2023-04-30T10:01:19;101203.69;;;18.82;55.00
74680;BME280;63211;48.548;2.704;2023-04-30T10:03:46;101198.03;;;18.83;55.12
74680;BME280;63211;48.548;2.704;2023-04-30T10:06:14;101181.88;;;18.75;55.00
74680;BME280;63211;48.548;2.704;2023-04-30T10:08:46;101193.81;;;18.81;54.96
74680;BME280;63211;48.548;2.704;2023-04-30T10:11:16;101193.41;;;18.84;54.67
74680;BME280;63211;48.548;2.704;2023-04-30T10:13:46;101196.13;;;18.84;54.94
74680;BME280;63211;48.548;2.704;2023-04-30T10:16:25;101192.34;;;18.85;55.22
74680;BME280;63211;48.548;2.704;2023-04-30T10:18:53;101181.66;;;18.77;55.18
74680;BME280;63211;48.548;2.704;2023-04-30T10:21:22;101185.84;;;18.79;55.01
74680;BME280;63211;48.548;2.704;2023-04-30T10:23:52;101187.94;;;18.84;54.99
74680;BME280;63211;48.548;2.704;2023-04-30T10:26:21;101194.84;;;18.86;55.34
74680;BME280;63211;48.548;2.704;2023-04-30T10:28:49;101183.09;;;18.86;55.27
74680;BME280;63211;48.548;2.704;2023-04-30T10:31:16;101197.38;;;18.88;55.50
74680;BME280;63211;48.548;2.704;2023-04-30T10:33:50;101193.81;;;18.87;55.26
74680;BME280;63211;48.548;2.704;2023-04-30T10:36:24;101177.03;;;18.84;55.28
74680;BME280;63211;48.548;2.704;2023-04-30T10:38:52;101174.50;;;18.82;55.45
74680;BME280;63211;48.548;2.704;2023-04-30T10:41:19;101174.72;;;18.87;55.40
74680;BME280;63211;48.548;2.704;2023-04-30T10:43:46;101175.34;;;18.90;55.45
74680;BME280;63211;48.548;2.704;2023-04-30T10:46:21;101181.00;;;18.88;55.39
74680;BME280;63211;48.548;2.704;2023-04-30T10:48:49;101169.88;;;18.90;55.47
74680;BME280;63211;48.548;2.704;2023-04-30T10:51:19;101170.72;;;18.90;55.21
74680;BME280;63211;48.548;2.704;2023-04-30T10:53:48;101166.09;;;18.91;55.43
74680;BME280;63211;48.548;2.704;2023-04-30T10:56:28;101170.47;;;18.92;55.27
74680;BME280;63211;48.548;2.704;2023-04-30T10:58:57;101161.47;;;18.91;55.61
74680;BME280;63211;48.548;2.704;2023-04-30T11:01:24;101131.53;;;18.71;55.42
74680;BME280;63211;48.548;2.704;2023-04-30T11:04:05;101158.50;;;18.93;55.61
74680;BME280;63211;48.548;2.704;2023-04-30T11:06:48;101151.81;;;18.88;55.57
74680;BME280;63211;48.548;2.704;2023-04-30T11:09:15;101158.50;;;18.93;55.58
74680;BME280;63211;48.548;2.704;2023-04-30T11:11:43;101157.66;;;18.92;55.45
74680;BME280;63211;48.548;2.704;2023-04-30T11:14:11;101152.19;;;18.92;55.70
74680;BME280;63211;48.548;2.704;2023-04-30T11:16:38;101157.44;;;18.94;55.45
74680;BME280;63211;48.548;2.704;2023-04-30T11:19:10;101154.72;;;18.94;55.76
74680;BME280;63211;48.548;2.704;2023-04-30T11:21:39;101149.25;;;18.94;55.45
74680;BME280;63211;48.548;2.704;2023-04-30T11:24:06;101148.19;;;18.95;55.53
74680;BME280;63211;48.548;2.704;2023-04-30T11:27:02;101140.84;;;18.95;55.40
74680;BME280;63211;48.548;2.704;2023-04-30T11:29:29;101142.13;;;18.93;55.54
74680;BME280;63211;48.548;2.704;2023-04-30T11:31:59;101149.25;;;18.94;55.75
74680;BME280;63211;48.548;2.704;2023-04-30T11:34:27;101139.19;;;18.94;55.28
74680;BME280;63211;48.548;2.704;2023-04-30T11:36:57;101140.84;;;18.95;55.62
74680;BME280;63211;48.548;2.704;2023-04-30T11:39:25;101133.72;;;18.94;55.49
74680;BME280;63211;48.548;2.704;2023-04-30T11:41:53;101140.63;;;18.97;55.73
74680;BME280;63211;48.548;2.704;2023-04-30T11:44:25;101136.84;;;18.98;55.76
74680;BME280;63211;48.548;2.704;2023-04-30T11:46:51;101125.31;;;18.96;55.42
74680;BME280;63211;48.548;2.704;2023-04-30T11:49:19;101118.81;;;18.97;55.83
74680;BME280;63211;48.548;2.704;2023-04-30T11:51:49;101124.06;;;18.98;55.57
74680;BME280;63211;48.548;2.704;2023-04-30T11:54:16;101114.81;;;18.99;55.75
74680;BME280;63211;48.548;2.704;2023-04-30T11:56:45;101122.16;;;18.99;55.68
74680;BME280;63211;48.548;2.704;2023-04-30T11:59:12;101109.78;;;18.96;55.57
74680;BME280;63211;48.548;2.704;2023-04-30T12:01:39;101112.91;;;19.00;55.90
74680;BME280;63211;48.548;2.704;2023-04-30T12:04:07;101110.19;;;19.00;55.98
74680;BME280;63211;48.548;2.704;2023-04-30T12:06:34;101109.34;;;18.99;55.69
74680;BME280;63211;48.548;2.704;2023-04-30T12:09:03;101107.47;;;19.00;55.82
74680;BME280;63211;48.548;2.704;2023-04-30T12:11:32;101105.56;;;19.00;55.70
74680;BME280;63211;48.548;2.704;2023-04-30T12:14:01;101100.94;;;19.01;55.92
74680;BME280;63211;48.548;2.704;2023-04-30T12:16:38;101108.09;;;19.02;55.94
74680;BME280;63211;48.548;2.704;2023-04-30T12:19:04;101111.66;;;19.02;56.02
74680;BME280;63211;48.548;2.704;2023-04-30T12:21:31;101097.59;;;18.99;56.31
74680;BME280;63211;48.548;2.704;2023-04-30T12:23:58;101096.13;;;19.03;55.84
74680;BME280;63211;48.548;2.704;2023-04-30T12:26:34;101073.16;;;18.85;55.84
74680;BME280;63211;48.548;2.704;2023-04-30T12:29:02;101101.56;;;19.03;55.98
74680;BME280;63211;48.548;2.704;2023-04-30T12:31:31;101100.72;;;19.02;55.77
74680;BME280;63211;48.548;2.704;2023-04-30T12:33:57;101104.91;;;19.05;56.04
74680;BME280;63211;48.548;2.704;2023-04-30T12:36:28;101107.66;;;19.05;56.10
74680;BME280;63211;48.548;2.704;2023-04-30T12:39:06;101110.59;;;19.03;56.28
74680;BME280;63211;48.548;2.704;2023-04-30T12:41:39;101095.94;;;18.98;55.90
74680;BME280;63211;48.548;2.704;2023-04-30T12:44:13;101103.88;;;19.06;55.96
74680;BME280;63211;48.548;2.704;2023-04-30T12:46:40;101108.47;;;19.05;55.87
74680;BME280;63211;48.548;2.704;2023-04-30T12:49:07;101106.38;;;19.07;55.98
74680;BME280;63211;48.548;2.704;2023-04-30T12:51:35;101097.38;;;19.00;56.03
74680;BME280;63211;48.548;2.704;2023-04-30T12:54:04;101104.47;;;19.08;56.01
74680;BME280;63211;48.548;2.704;2023-04-30T12:56:31;101115.41;;;19.08;55.80